sensor_id;sensor_type;location;lat;lon;timestamp;P1;durP1;ratioP1;P2;durP2;ratioP2
22673;SDS011;11504;43.334;21.918;2023-11-19T00:02:28;13.0;;;12.0;;
22673;SDS011;11504;43.334;21.918;2023-11-19T00:07:04;13.0;;;12.0;;
22673;SDS011;11504;43.334;21.918;2023-11-19T00:11:41;12.0;;;12.0;;
22673;SDS011;11504;43.334;21.918;2023-11-19T00:16:17;12.0;;;12.0;;
22673;SDS011;11504;43.334;21.918;2023-11-19T00:20:53;12.0;;;12.0;;
22673;SDS011;11504;43.334;21.918;2023-11-19T00:25:29;12.0;;;12.0;;
22673;SDS011;11504;43.334;21.918;2023-11-19T00:30:06;12.0;;;12.0;;
22673;SDS011;11504;43.334;21.918;2023-11-19T00:34:43;12.0;;;12.0;;
22673;SDS011;11504;43.334;21.918;2023-11-19T00:39:20;12.0;;;12.0;;
22673;SDS011;11504;43.334;21.918;2023-11-19T00:43:56;13.0;;;13.0;;
22673;SDS011;11504;43.334;21.918;2023-11-19T00:48:32;13.0;;;13.0;;
22673;SDS011;11504;43.334;21.918;2023-11-19T00:53:09;14.0;;;13.0;;
22673;SDS011;11504;43.334;21.918;2023-11-19T00:57:46;14.0;;;13.0;;
22673;SDS011;11504;43.334;21.918;2023-11-19T01:02:22;14.0;;;13.0;;
22673;SDS011;11504;43.334;21.918;2023-11-19T01:06:58;14.0;;;13.0;;
22673;SDS011;11504;43.334;21.918;2023-11-19T01:11:34;13.0;;;12.0;;
22673;SDS011;11504;43.334;21.918;2023-11-19T01:16:11;13.0;;;12.0;;
22673;SDS011;11504;43.334;21.918;2023-11-19T01:20:47;12.0;;;12.0;;
22673;SDS011;11504;43.334;21.918;2023-11-19T01:25:24;12.0;;;12.0;;
22673;SDS011;11504;43.334;21.918;2023-11-19T01:30:00;12.0;;;12.0;;
22673;SDS011;11504;43.334;21.918;2023-11-19T01:34:36;12.0;;;12.0;;
22673;SDS011;11504;43.334;21.918;2023-11-19T01:39:12;12.0;;;12.0;;
22673;SDS011;11504;43.334;21.918;2023-11-19T01:43:48;12.0;;;12.0;;
22673;SDS011;11504;43.334;21.918;2023-11-19T01:48:25;12.0;;;12.0;;
22673;SDS011;11504;43.334;21.918;2023-11-19T01:53:03;12.0;;;12.0;;
22673;SDS011;11504;43.334;21.918;2023-11-19T01:57:39;12.0;;;12.0;;
22673;SDS011;11504;43.334;21.918;2023-11-19T02:02:16;12.0;;;12.0;;
22673;SDS011;11504;43.334;21.918;2023-11-19T02:06:55;12.0;;;12.0;;
22673;SDS011;11504;43.334;21.918;2023-11-19T02:11:35;14.0;;;13.0;;
22673;SDS011;11504;43.334;21.918;2023-11-19T02:16:15;14.0;;;13.0;;
22673;SDS011;11504;43.334;21.918;2023-11-19T02:20:52;15.0;;;14.0;;
22673;SDS011;11504;43.334;21.918;2023-11-19T02:25:30;15.0;;;14.0;;
22673;SDS011;11504;43.334;21.918;2023-11-19T02:30:14;14.0;;;13.0;;
22673;SDS011;11504;43.334;21.918;2023-11-19T02:34:50;14.0;;;13.0;;
22673;SDS011;11504;43.334;21.918;2023-11-19T02:39:26;14.0;;;13.0;;
22673;SDS011;11504;43.334;21.918;2023-11-19T02:44:03;12.0;;;12.0;;
22673;SDS011;11504;43.334;21.918;2023-11-19T02:48:42;12.0;;;12.0;;
22673;SDS011;11504;43.334;21.918;2023-11-19T02:53:18;12.0;;;12.0;;
22673;SDS011;11504;43.334;21.918;2023-11-19T02:57:54;12.0;;;12.0;;
22673;SDS011;11504;43.334;21.918;2023-11-19T03:02:30;12.0;;;12.0;;
22673;SDS011;11504;43.334;21.918;2023-11-19T03:07:07;12.0;;;12.0;;
22673;SDS011;11504;43.334;21.918;2023-11-19T03:11:43;13.0;;;12.0;;
22673;SDS011;11504;43.334;21.918;2023-11-19T03:16:19;13.0;;;12.0;;
22673;SDS011;11504;43.334;21.918;2023-11-19T03:20:55;14.0;;;13.0;;
22673;SDS011;11504;43.334;21.918;2023-11-19T03:25:31;14.0;;;13.0;;
22673;SDS011;11504;43.334;21.918;2023-11-19T03:30:08;14.0;;;13.0;;
22673;SDS011;11504;43.334;21.918;2023-11-19T03:34:47;14.0;;;14.0;;
22673;SDS011;11504;43.334;21.918;2023-11-19T03:39:23;14.0;;;14.0;;
22673;SDS011;11504;43.334;21.918;2023-11-19T03:44:00;14.0;;;14.0;;
22673;SDS011;11504;43.334;21.918;2023-11-19T03:48:36;14.0;;;14.0;;
22673;SDS011;11504;43.334;21.918;2023-11-19T03:53:12;14.0;;;14.0;;
22673;SDS011;11504;43.334;21.918;2023-11-19T03:57:48;14.0;;;14.0;;
22673;SDS011;11504;43.334;21.918;2023-11-19T04:02:25;14.0;;;14.0;;
22673;SDS011;11504;43.334;21.918;2023-11-19T04:07:01;14.0;;;14.0;;
22673;SDS011;11504;43.334;21.918;2023-11-19T04:11:38;14.0;;;14.0;;
22673;SDS011;11504;43.334;21.918;2023-11-19T04:16:15;14.0;;;14.0;;
22673;SDS011;11504;43.334;21.918;2023-11-19T04:20:51;14.0;;;13.0;;
22673;SDS011;11504;43.334;21.918;2023-11-19T04:25:28;14.0;;;13.0;;
22673;SDS011;11504;43.334;21.918;2023-11-19T04:30:04;14.0;;;13.0;;
22673;SDS011;11504;43.334;21.918;2023-11-19T04:34:44;15.0;;;14.0;;
22673;SDS011;11504;43.334;21.918;2023-11-19T04:39:20;15.0;;;14.0;;
22673;SDS011;11504;43.334;21.918;2023-11-19T04:43:56;16.0;;;15.0;;
22673;SDS011;11504;43.334;21.918;2023-11-19T04:48:33;16.0;;;15.0;;
22673;SDS011;11504;43.334;21.918;2023-11-19T04:53:09;15.0;;;14.0;;
22673;SDS011;11504;43.334;21.918;2023-11-19T04:57:47;15.0;;;14.0;;
22673;SDS011;11504;43.334;21.918;2023-11-19T05:02:23;14.0;;;13.0;;
22673;SDS011;11504;43.334;21.918;2023-11-19T05:07:00;14.0;;;13.0;;
22673;SDS011;11504;43.334;21.918;2023-11-19T05:11:37;14.0;;;14.0;;
22673;SDS011;11504;43.334;21.918;2023-11-19T05:16:14;14.0;;;14.0;;
22673;SDS011;11504;43.334;21.918;2023-11-19T05:20:50;15.0;;;14.0;;
22673;SDS011;11504;43.334;21.918;2023-11-19T05:25:26;15.0;;;14.0;;
22673;SDS011;11504;43.334;21.918;2023-11-19T05:30:03;15.0;;;14.0;;
22673;SDS011;11504;43.334;21.918;2023-11-19T05:34:43;15.0;;;14.0;;
22673;SDS011;11504;43.334;21.918;2023-11-19T05:39:19;15.0;;;14.0;;
22673;SDS011;11504;43.334;21.918;2023-11-19T05:43:55;15.0;;;14.0;;
22673;SDS011;11504;43.334;21.918;2023-11-19T05:48:31;15.0;;;14.0;;
22673;SDS011;11504;43.334;21.918;2023-11-19T05:53:08;15.0;;;14.0;;
22673;SDS011;11504;43.334;21.918;2023-11-19T05:57:45;15.0;;;14.0;;
22673;SDS011;11504;43.334;21.918;2023-11-19T06:02:21;15.0;;;15.0;;
22673;SDS011;11504;43.334;21.918;2023-11-19T06:06:57;15.0;;;15.0;;
22673;SDS011;11504;43.334;21.918;2023-11-19T06:11:34;16.0;;;16.0;;
22673;SDS011;11504;43.334;21.918;2023-11-19T06:16:11;16.0;;;16.0;;
22673;SDS011;11504;43.334;21.918;2023-11-19T06:20:47;17.0;;;16.0;;
22673;SDS011;11504;43.334;21.918;2023-11-19T06:25:24;17.0;;;16.0;;
22673;SDS011;11504;43.334;21.918;2023-11-19T06:30:01;17.0;;;16.0;;
22673;SDS011;11504;43.334;21.918;2023-11-19T06:34:41;17.0;;;16.0;;
22673;SDS011;11504;43.334;21.918;2023-11-19T06:39:17;17.0;;;16.0;;
22673;SDS011;11504;43.334;21.918;2023-11-19T06:43:54;17.0;;;16.0;;
22673;SDS011;11504;43.334;21.918;2023-11-19T06:48:30;17.0;;;16.0;;
22673;SDS011;11504;43.334;21.918;2023-11-19T06:53:07;18.0;;;16.0;;
22673;SDS011;11504;43.334;21.918;2023-11-19T06:57:43;18.0;;;16.0;;
22673;SDS011;11504;43.334;21.918;2023-11-19T07:02:20;18.0;;;17.0;;
22673;SDS011;11504;43.334;21.918;2023-11-19T07:06:56;18.0;;;17.0;;
22673;SDS011;11504;43.334;21.918;2023-11-19T07:11:33;18.0;;;16.0;;
22673;SDS011;11504;43.334;21.918;2023-11-19T07:16:09;18.0;;;16.0;;
22673;SDS011;11504;43.334;21.918;2023-11-19T07:20:45;17.0;;;16.0;;
22673;SDS011;11504;43.334;21.918;2023-11-19T07:25:22;17.0;;;16.0;;
22673;SDS011;11504;43.334;21.918;2023-11-19T07:29:58;17.0;;;16.0;;
22673;SDS011;11504;43.334;21.918;2023-11-19T07:34:35;18.0;;;16.0;;
22673;SDS011;11504;43.334;21.918;2023-11-19T07:39:12;18.0;;;16.0;;
22673;SDS011;11504;43.334;21.918;2023-11-19T07:43:48;18.0;;;17.0;;
22673;SDS011;11504;43.334;21.918;2023-11-19T07:48:25;18.0;;;17.0;;
22673;SDS011;11504;43.334;21.918;2023-11-19T07:53:01;19.0;;;18.0;;
22673;SDS011;11504;43.334;21.918;2023-11-19T07:57:38;19.0;;;18.0;;
22673;SDS011;11504;43.334;21.918;2023-11-19T08:02:14;20.0;;;19.0;;
22673;SDS011;11504;43.334;21.918;2023-11-19T08:06:50;20.0;;;19.0;;
22673;SDS011;11504;43.334;21.918;2023-11-19T08:11:26;18.0;;;18.0;;
22673;SDS011;11504;43.334;21.918;2023-11-19T08:16:03;18.0;;;18.0;;
22673;SDS011;11504;43.334;21.918;2023-11-19T08:20:42;17.0;;;16.0;;
22673;SDS011;11504;43.334;21.918;2023-11-19T08:25:18;17.0;;;16.0;;
22673;SDS011;11504;43.334;21.918;2023-11-19T08:29:55;17.0;;;16.0;;
22673;SDS011;11504;43.334;21.918;2023-11-19T08:34:31;20.0;;;18.0;;
22673;SDS011;11504;43.334;21.918;2023-11-19T08:39:07;20.0;;;18.0;;
22673;SDS011;11504;43.334;21.918;2023-11-19T08:43:44;22.0;;;20.0;;
22673;SDS011;11504;43.334;21.918;2023-11-19T08:48:21;22.0;;;20.0;;
22673;SDS011;11504;43.334;21.918;2023-11-19T08:52:57;20.0;;;19.0;;
22673;SDS011;11504;43.334;21.918;2023-11-19T08:57:34;20.0;;;19.0;;
22673;SDS011;11504;43.334;21.918;2023-11-19T09:02:10;19.0;;;18.0;;
22673;SDS011;11504;43.334;21.918;2023-11-19T09:06:47;19.0;;;18.0;;
22673;SDS011;11504;43.334;21.918;2023-11-19T09:11:23;19.0;;;18.0;;
22673;SDS011;11504;43.334;21.918;2023-11-19T09:16:00;19.0;;;18.0;;
22673;SDS011;11504;43.334;21.918;2023-11-19T09:20:36;19.0;;;18.0;;
22673;SDS011;11504;43.334;21.918;2023-11-19T09:25:13;19.0;;;18.0;;
22673;SDS011;11504;43.334;21.918;2023-11-19T09:29:49;19.0;;;18.0;;
22673;SDS011;11504;43.334;21.918;2023-11-19T09:34:25;18.0;;;18.0;;
22673;SDS011;11504;43.334;21.918;2023-11-19T09:39:01;18.0;;;18.0;;
22673;SDS011;11504;43.334;21.918;2023-11-19T09:43:38;18.0;;;17.0;;
22673;SDS011;11504;43.334;21.918;2023-11-19T09:48:17;18.0;;;17.0;;
22673;SDS011;11504;43.334;21.918;2023-11-19T09:52:55;16.0;;;16.0;;
22673;SDS011;11504;43.334;21.918;2023-11-19T09:57:31;16.0;;;16.0;;
22673;SDS011;11504;43.334;21.918;2023-11-19T10:02:15;15.0;;;14.0;;
22673;SDS011;11504;43.334;21.918;2023-11-19T10:06:54;15.0;;;14.0;;
22673;SDS011;11504;43.334;21.918;2023-11-19T10:11:31;16.0;;;15.0;;
22673;SDS011;11504;43.334;21.918;2023-11-19T10:16:07;16.0;;;15.0;;
22673;SDS011;11504;43.334;21.918;2023-11-19T10:20:49;17.0;;;16.0;;
22673;SDS011;11504;43.334;21.918;2023-11-19T10:25:26;17.0;;;16.0;;
22673;SDS011;11504;43.334;21.918;2023-11-19T10:30:06;17.0;;;16.0;;
22673;SDS011;11504;43.334;21.918;2023-11-19T10:34:47;16.0;;;16.0;;
22673;SDS011;11504;43.334;21.918;2023-11-19T10:39:25;16.0;;;16.0;;
22673;SDS011;11504;43.334;21.918;2023-11-19T10:44:31;15.0;;;15.0;;
22673;SDS011;11504;43.334;21.918;2023-11-19T10:49:10;15.0;;;15.0;;
22673;SDS011;11504;43.334;21.918;2023-11-19T10:53:46;15.0;;;14.0;;
22673;SDS011;11504;43.334;21.918;2023-11-19T10:58:26;15.0;;;14.0;;
22673;SDS011;11504;43.334;21.918;2023-11-19T11:03:11;15.0;;;14.0;;
22673;SDS011;11504;43.334;21.918;2023-11-19T11:08:00;15.0;;;14.0;;
22673;SDS011;11504;43.334;21.918;2023-11-19T11:12:41;18.0;;;17.0;;
22673;SDS011;11504;43.334;21.918;2023-11-19T11:17:22;18.0;;;17.0;;
22673;SDS011;11504;43.334;21.918;2023-11-19T11:22:08;21.0;;;20.0;;
22673;SDS011;11504;43.334;21.918;2023-11-19T11:26:57;21.0;;;20.0;;
22673;SDS011;11504;43.334;21.918;2023-11-19T11:32:50;20.0;;;19.0;;
22673;SDS011;11504;43.334;21.918;2023-11-19T11:38:36;20.0;;;19.0;;
22673;SDS011;11504;43.334;21.918;2023-11-19T11:43:47;19.0;;;18.0;;
22673;SDS011;11504;43.334;21.918;2023-11-19T11:48:29;19.0;;;18.0;;
22673;SDS011;11504;43.334;21.918;2023-11-19T11:53:15;18.0;;;17.0;;
22673;SDS011;11504;43.334;21.918;2023-11-19T11:57:59;18.0;;;17.0;;
22673;SDS011;11504;43.334;21.918;2023-11-19T12:02:36;16.0;;;16.0;;
22673;SDS011;11504;43.334;21.918;2023-11-19T12:07:14;16.0;;;16.0;;
22673;SDS011;11504;43.334;21.918;2023-11-19T12:12:06;16.0;;;15.0;;
22673;SDS011;11504;43.334;21.918;2023-11-19T12:17:01;16.0;;;15.0;;
22673;SDS011;11504;43.334;21.918;2023-11-19T12:22:18;15.0;;;14.0;;
22673;SDS011;11504;43.334;21.918;2023-11-19T12:26:54;15.0;;;14.0;;
22673;SDS011;11504;43.334;21.918;2023-11-19T12:31:31;16.0;;;14.0;;
22673;SDS011;11504;43.334;21.918;2023-11-19T12:36:08;16.0;;;14.0;;
22673;SDS011;11504;43.334;21.918;2023-11-19T12:40:45;17.0;;;15.0;;
22673;SDS011;11504;43.334;21.918;2023-11-19T12:45:22;17.0;;;15.0;;
22673;SDS011;11504;43.334;21.918;2023-11-19T12:49:59;17.0;;;15.0;;
22673;SDS011;11504;43.334;21.918;2023-11-19T12:54:36;16.0;;;14.0;;
22673;SDS011;11504;43.334;21.918;2023-11-19T12:59:13;16.0;;;14.0;;
22673;SDS011;11504;43.334;21.918;2023-11-19T13:03:49;15.0;;;14.0;;
22673;SDS011;11504;43.334;21.918;2023-11-19T13:08:25;15.0;;;14.0;;
22673;SDS011;11504;43.334;21.918;2023-11-19T13:13:02;16.0;;;14.0;;
22673;SDS011;11504;43.334;21.918;2023-11-19T13:17:44;16.0;;;14.0;;
22673;SDS011;11504;43.334;21.918;2023-11-19T13:22:23;17.0;;;15.0;;
22673;SDS011;11504;43.334;21.918;2023-11-19T13:26:59;17.0;;;15.0;;
22673;SDS011;11504;43.334;21.918;2023-11-19T13:31:35;22.0;;;20.0;;
22673;SDS011;11504;43.334;21.918;2023-11-19T13:36:13;22.0;;;20.0;;
22673;SDS011;11504;43.334;21.918;2023-11-19T13:40:50;26.0;;;24.0;;
22673;SDS011;11504;43.334;21.918;2023-11-19T13:45:26;26.0;;;24.0;;
22673;SDS011;11504;43.334;21.918;2023-11-19T13:50:03;26.0;;;24.0;;
22673;SDS011;11504;43.334;21.918;2023-11-19T13:54:41;22.0;;;20.0;;
22673;SDS011;11504;43.334;21.918;2023-11-19T13:59:17;22.0;;;20.0;;
22673;SDS011;11504;43.334;21.918;2023-11-19T14:03:53;19.0;;;17.0;;
22673;SDS011;11504;43.334;21.918;2023-11-19T14:08:30;19.0;;;17.0;;
22673;SDS011;11504;43.334;21.918;2023-11-19T14:13:06;20.0;;;18.0;;
22673;SDS011;11504;43.334;21.918;2023-11-19T14:17:43;20.0;;;18.0;;
22673;SDS011;11504;43.334;21.918;2023-11-19T14:22:20;20.0;;;19.0;;
22673;SDS011;11504;43.334;21.918;2023-11-19T14:26:57;20.0;;;19.0;;
22673;SDS011;11504;43.334;21.918;2023-11-19T14:31:33;18.0;;;18.0;;
22673;SDS011;11504;43.334;21.918;2023-11-19T14:36:10;18.0;;;18.0;;
22673;SDS011;11504;43.334;21.918;2023-11-19T14:40:46;18.0;;;18.0;;
22673;SDS011;11504;43.334;21.918;2023-11-19T14:45:22;17.0;;;16.0;;
22673;SDS011;11504;43.334;21.918;2023-11-19T14:49:59;17.0;;;16.0;;
22673;SDS011;11504;43.334;21.918;2023-11-19T14:54:35;24.0;;;22.0;;
22673;SDS011;11504;43.334;21.918;2023-11-19T14:59:11;24.0;;;22.0;;
22673;SDS011;11504;43.334;21.918;2023-11-19T15:03:47;30.0;;;29.0;;
22673;SDS011;11504;43.334;21.918;2023-11-19T15:08:23;30.0;;;29.0;;
22673;SDS011;11504;43.334;21.918;2023-11-19T15:13:00;36.0;;;34.0;;
22673;SDS011;11504;43.334;21.918;2023-11-19T15:17:36;36.0;;;34.0;;
22673;SDS011;11504;43.334;21.918;2023-11-19T15:22:12;41.0;;;39.0;;
22673;SDS011;11504;43.334;21.918;2023-11-19T15:26:49;41.0;;;39.0;;
22673;SDS011;11504;43.334;21.918;2023-11-19T15:31:26;38.0;;;36.0;;
22673;SDS011;11504;43.334;21.918;2023-11-19T15:36:02;38.0;;;36.0;;
22673;SDS011;11504;43.334;21.918;2023-11-19T15:40:43;38.0;;;36.0;;
22673;SDS011;11504;43.334;21.918;2023-11-19T15:45:19;36.0;;;34.0;;
22673;SDS011;11504;43.334;21.918;2023-11-19T15:49:56;36.0;;;34.0;;
22673;SDS011;11504;43.334;21.918;2023-11-19T15:54:32;46.0;;;42.0;;
22673;SDS011;11504;43.334;21.918;2023-11-19T15:59:09;46.0;;;42.0;;
22673;SDS011;11504;43.334;21.918;2023-11-19T16:03:45;55.0;;;50.0;;
22673;SDS011;11504;43.334;21.918;2023-11-19T16:08:21;55.0;;;50.0;;
22673;SDS011;11504;43.334;21.918;2023-11-19T16:12:57;40.0;;;36.0;;
22673;SDS011;11504;43.334;21.918;2023-11-19T16:17:33;40.0;;;36.0;;
22673;SDS011;11504;43.334;21.918;2023-11-19T16:22:10;24.0;;;23.0;;
22673;SDS011;11504;43.334;21.918;2023-11-19T16:26:46;24.0;;;23.0;;
22673;SDS011;11504;43.334;21.918;2023-11-19T16:31:22;27.0;;;26.0;;
22673;SDS011;11504;43.334;21.918;2023-11-19T16:35:59;27.0;;;26.0;;
22673;SDS011;11504;43.334;21.918;2023-11-19T16:40:35;27.0;;;26.0;;
22673;SDS011;11504;43.334;21.918;2023-11-19T16:45:11;30.0;;;29.0;;
22673;SDS011;11504;43.334;21.918;2023-11-19T16:49:48;30.0;;;29.0;;
22673;SDS011;11504;43.334;21.918;2023-11-19T16:54:24;30.0;;;28.0;;
22673;SDS011;11504;43.334;21.918;2023-11-19T16:59:01;30.0;;;28.0;;
22673;SDS011;11504;43.334;21.918;2023-11-19T17:03:37;29.0;;;27.0;;
22673;SDS011;11504;43.334;21.918;2023-11-19T17:08:13;29.0;;;27.0;;
22673;SDS011;11504;43.334;21.918;2023-11-19T17:12:50;40.0;;;38.0;;
22673;SDS011;11504;43.334;21.918;2023-11-19T17:17:26;40.0;;;38.0;;
22673;SDS011;11504;43.334;21.918;2023-11-19T17:22:03;51.0;;;49.0;;
22673;SDS011;11504;43.334;21.918;2023-11-19T17:26:39;51.0;;;49.0;;
22673;SDS011;11504;43.334;21.918;2023-11-19T17:31:15;46.0;;;44.0;;
22673;SDS011;11504;43.334;21.918;2023-11-19T17:35:52;46.0;;;44.0;;
22673;SDS011;11504;43.334;21.918;2023-11-19T17:40:28;46.0;;;44.0;;
22673;SDS011;11504;43.334;21.918;2023-11-19T17:45:04;42.0;;;40.0;;
22673;SDS011;11504;43.334;21.918;2023-11-19T17:49:41;42.0;;;40.0;;
22673;SDS011;11504;43.334;21.918;2023-11-19T17:54:18;44.0;;;42.0;;
22673;SDS011;11504;43.334;21.918;2023-11-19T17:58:54;44.0;;;42.0;;
22673;SDS011;11504;43.334;21.918;2023-11-19T18:03:31;46.0;;;44.0;;
22673;SDS011;11504;43.334;21.918;2023-11-19T18:08:07;46.0;;;44.0;;
22673;SDS011;11504;43.334;21.918;2023-11-19T18:12:44;45.0;;;40.0;;
22673;SDS011;11504;43.334;21.918;2023-11-19T18:17:21;45.0;;;40.0;;
22673;SDS011;11504;43.334;21.918;2023-11-19T18:21:57;44.0;;;36.0;;
22673;SDS011;11504;43.334;21.918;2023-11-19T18:26:34;44.0;;;36.0;;
22673;SDS011;11504;43.334;21.918;2023-11-19T18:31:11;46.0;;;39.0;;
22673;SDS011;11504;43.334;21.918;2023-11-19T18:35:47;46.0;;;39.0;;
22673;SDS011;11504;43.334;21.918;2023-11-19T18:40:24;46.0;;;39.0;;
22673;SDS011;11504;43.334;21.918;2023-11-19T18:45:01;47.0;;;42.0;;
22673;SDS011;11504;43.334;21.918;2023-11-19T18:49:40;47.0;;;42.0;;
22673;SDS011;11504;43.334;21.918;2023-11-19T18:54:17;69.0;;;63.0;;
22673;SDS011;11504;43.334;21.918;2023-11-19T18:58:53;69.0;;;63.0;;
22673;SDS011;11504;43.334;21.918;2023-11-19T19:03:29;91.0;;;84.0;;
22673;SDS011;11504;43.334;21.918;2023-11-19T19:08:05;91.0;;;84.0;;
22673;SDS011;11504;43.334;21.918;2023-11-19T19:12:41;77.0;;;72.0;;
22673;SDS011;11504;43.334;21.918;2023-11-19T19:17:17;77.0;;;72.0;;
22673;SDS011;11504;43.334;21.918;2023-11-19T19:21:53;63.0;;;60.0;;
22673;SDS011;11504;43.334;21.918;2023-11-19T19:26:30;63.0;;;60.0;;
22673;SDS011;11504;43.334;21.918;2023-11-19T19:31:07;74.0;;;70.0;;
22673;SDS011;11504;43.334;21.918;2023-11-19T19:35:43;74.0;;;70.0;;
22673;SDS011;11504;43.334;21.918;2023-11-19T19:40:19;74.0;;;70.0;;
22673;SDS011;11504;43.334;21.918;2023-11-19T19:44:56;84.0;;;80.0;;
22673;SDS011;11504;43.334;21.918;2023-11-19T19:49:32;84.0;;;80.0;;
22673;SDS011;11504;43.334;21.918;2023-11-19T19:54:08;94.0;;;87.0;;
22673;SDS011;11504;43.334;21.918;2023-11-19T19:58:45;94.0;;;87.0;;
22673;SDS011;11504;43.334;21.918;2023-11-19T20:03:22;104.0;;;94.0;;
22673;SDS011;11504;43.334;21.918;2023-11-19T20:07:58;104.0;;;94.0;;
22673;SDS011;11504;43.334;21.918;2023-11-19T20:12:34;104.0;;;94.0;;
22673;SDS011;11504;43.334;21.918;2023-11-19T20:17:11;104.0;;;94.0;;
22673;SDS011;11504;43.334;21.918;2023-11-19T20:21:47;104.0;;;93.0;;
22673;SDS011;11504;43.334;21.918;2023-11-19T20:26:23;104.0;;;93.0;;
22673;SDS011;11504;43.334;21.918;2023-11-19T20:31:00;104.0;;;93.0;;
22673;SDS011;11504;43.334;21.918;2023-11-19T20:35:36;112.0;;;100.0;;
22673;SDS011;11504;43.334;21.918;2023-11-19T20:40:12;112.0;;;100.0;;
22673;SDS011;11504;43.334;21.918;2023-11-19T20:44:48;120.0;;;106.0;;
22673;SDS011;11504;43.334;21.918;2023-11-19T20:49:25;120.0;;;106.0;;
22673;SDS011;11504;43.334;21.918;2023-11-19T20:54:01;112.0;;;102.0;;
22673;SDS011;11504;43.334;21.918;2023-11-19T20:58:38;112.0;;;102.0;;
22673;SDS011;11504;43.334;21.918;2023-11-19T21:03:14;103.0;;;97.0;;
22673;SDS011;11504;43.334;21.918;2023-11-19T21:07:50;103.0;;;97.0;;
22673;SDS011;11504;43.334;21.918;2023-11-19T21:12:26;96.0;;;90.0;;
22673;SDS011;11504;43.334;21.918;2023-11-19T21:17:02;96.0;;;90.0;;
22673;SDS011;11504;43.334;21.918;2023-11-19T21:21:39;88.0;;;84.0;;
22673;SDS011;11504;43.334;21.918;2023-11-19T21:26:15;88.0;;;84.0;;
22673;SDS011;11504;43.334;21.918;2023-11-19T21:30:51;88.0;;;84.0;;
22673;SDS011;11504;43.334;21.918;2023-11-19T21:35:30;76.0;;;72.0;;
22673;SDS011;11504;43.334;21.918;2023-11-19T21:40:06;76.0;;;72.0;;
22673;SDS011;11504;43.334;21.918;2023-11-19T21:44:45;63.0;;;60.0;;
22673;SDS011;11504;43.334;21.918;2023-11-19T21:49:22;63.0;;;60.0;;
22673;SDS011;11504;43.334;21.918;2023-11-19T21:53:58;64.0;;;60.0;;
22673;SDS011;11504;43.334;21.918;2023-11-19T21:58:34;64.0;;;60.0;;
22673;SDS011;11504;43.334;21.918;2023-11-19T22:03:10;64.0;;;60.0;;
22673;SDS011;11504;43.334;21.918;2023-11-19T22:07:46;64.0;;;60.0;;
22673;SDS011;11504;43.334;21.918;2023-11-19T22:12:23;82.0;;;76.0;;
22673;SDS011;11504;43.334;21.918;2023-11-19T22:16:59;82.0;;;76.0;;
22673;SDS011;11504;43.334;21.918;2023-11-19T22:21:36;99.0;;;93.0;;
22673;SDS011;11504;43.334;21.918;2023-11-19T22:26:12;99.0;;;93.0;;
22673;SDS011;11504;43.334;21.918;2023-11-19T22:30:49;99.0;;;93.0;;
22673;SDS011;11504;43.334;21.918;2023-11-19T22:35:25;110.0;;;102.0;;
22673;SDS011;11504;43.334;21.918;2023-11-19T22:40:01;110.0;;;102.0;;
22673;SDS011;11504;43.334;21.918;2023-11-19T22:44:44;120.0;;;110.0;;
22673;SDS011;11504;43.334;21.918;2023-11-19T22:49:20;120.0;;;110.0;;
22673;SDS011;11504;43.334;21.918;2023-11-19T22:53:56;150.0;;;138.0;;
22673;SDS011;11504;43.334;21.918;2023-11-19T22:58:32;150.0;;;138.0;;
22673;SDS011;11504;43.334;21.918;2023-11-19T23:03:08;181.0;;;167.0;;
22673;SDS011;11504;43.334;21.918;2023-11-19T23:07:44;181.0;;;167.0;;
22673;SDS011;11504;43.334;21.918;2023-11-19T23:12:21;155.0;;;144.0;;
22673;SDS011;11504;43.334;21.918;2023-11-19T23:16:57;155.0;;;144.0;;
22673;SDS011;11504;43.334;21.918;2023-11-19T23:21:33;129.0;;;122.0;;
22673;SDS011;11504;43.334;21.918;2023-11-19T23:26:10;129.0;;;122.0;;
22673;SDS011;11504;43.334;21.918;2023-11-19T23:30:48;129.0;;;122.0;;
22673;SDS011;11504;43.334;21.918;2023-11-19T23:35:25;114.0;;;108.0;;
22673;SDS011;11504;43.334;21.918;2023-11-19T23:40:02;114.0;;;108.0;;
22673;SDS011;11504;43.334;21.918;2023-11-19T23:44:43;100.0;;;94.0;;
22673;SDS011;11504;43.334;21.918;2023-11-19T23:49:19;100.0;;;94.0;;
22673;SDS011;11504;43.334;21.918;2023-11-19T23:53:55;86.0;;;80.0;;
22673;SDS011;11504;43.334;21.918;2023-11-19T23:58:32;86.0;;;80.0;;
